Time;durP1;ratioP1;P1;durP2;ratioP2;P2;SDS_P1;SDS_P2;PMS_P1;PMS_P2;Temp;Humidity;BMP_temperature;BMP_pressure;BME280_temperature;BME280_humidity;BME280_pressure;Samples;Min_cycle;Max_cycle;Signal;HPM_P1;HPM_P2
2023/05/29 00:00:38;;;;;;;13.90;5.05;;;;;;;14.25;89.24;102189.41;5028635;28;20129;-66
2023/05/29 00:03:06;;;;;;;13.32;5.03;;;;;;;14.13;89.77;102183.25;5031722;28;20441;-65
2023/05/29 00:05:33;;;;;;;14.88;4.53;;;;;;;14.09;88.87;102187.59;5052305;28;20064;-65
2023/05/29 00:08:01;;;;;;;12.13;4.68;;;;;;;14.14;89.07;102190.38;5035592;28;20509;-65
2023/05/29 00:10:30;;;;;;;13.02;4.65;;;;;;;13.99;88.81;102186.41;5017827;28;20053;-66
2023/05/29 00:13:00;;;;;;;14.35;5.32;;;;;;;13.94;88.81;102197.31;5009615;28;20104;-66
2023/05/29 00:15:30;;;;;;;16.65;5.60;;;;;;;13.96;88.91;102195.16;5019543;28;20509;-66
2023/05/29 00:17:57;;;;;;;12.20;4.25;;;;;;;13.98;88.12;102203.13;5019174;28;20049;-67
2023/05/29 00:20:26;;;;;;;14.23;4.70;;;;;;;13.97;87.26;102195.97;5027405;28;20042;-65
2023/05/29 00:22:53;;;;;;;15.57;4.90;;;;;;;14.03;86.32;102194.94;5006858;28;20120;-65
2023/05/29 00:25:21;;;;;;;14.10;4.90;;;;;;;13.92;85.38;102204.94;5052009;28;20144;-65
2023/05/29 00:27:49;;;;;;;17.33;5.20;;;;;;;13.95;85.91;102203.59;5017375;28;20051;-66
2023/05/29 00:30:17;;;;;;;13.50;4.60;;;;;;;13.98;83.80;102203.94;5036415;28;20393;-65
2023/05/29 00:32:45;;;;;;;12.82;4.40;;;;;;;13.85;83.62;102199.69;5037766;28;20045;-66
2023/05/29 00:35:14;;;;;;;16.83;4.35;;;;;;;13.90;82.41;102198.06;5027756;28;20049;-68
2023/05/29 00:37:42;;;;;;;15.50;4.10;;;;;;;13.80;82.42;102209.75;5042717;28;20049;-66
2023/05/29 00:40:11;;;;;;;18.25;5.05;;;;;;;13.78;82.09;102214.66;5041878;28;20061;-66
2023/05/29 00:42:39;;;;;;;17.52;4.53;;;;;;;13.78;81.74;102210.03;5036071;28;20045;-66
2023/05/29 00:45:07;;;;;;;14.05;4.13;;;;;;;13.82;81.80;102211.13;5035115;28;20056;-65
2023/05/29 00:47:35;;;;;;;15.10;4.95;;;;;;;13.70;81.23;102213.19;5016318;28;20050;-66
2023/05/29 00:50:03;;;;;;;14.98;4.30;;;;;;;13.70;81.80;102213.19;5004891;28;20047;-66
2023/05/29 00:52:31;;;;;;;17.38;4.43;;;;;;;13.82;80.46;102216.63;5039750;28;20054;-66
2023/05/29 00:55:02;;;;;;;14.93;4.40;;;;;;;13.71;81.13;102209.38;5040009;28;20466;-66
2023/05/29 00:57:30;;;;;;;14.27;4.88;;;;;;;13.46;81.70;102222.72;5015447;28;20059;-65
2023/05/29 00:59:59;;;;;;;17.48;4.63;;;;;;;13.46;82.11;102228.22;5026162;28;20053;-66
2023/05/29 01:02:29;;;;;;;13.43;4.22;;;;;;;13.48;81.95;102232.34;5034478;28;20077;-65
2023/05/29 01:04:58;;;;;;;15.38;4.50;;;;;;;13.50;81.71;102234.84;5016945;28;20047;-66
2023/05/29 01:07:26;;;;;;;15.43;4.40;;;;;;;13.42;82.33;102236.09;5034702;28;20061;-66
2023/05/29 01:09:54;;;;;;;13.07;4.40;;;;;;;13.50;81.98;102241.16;5034141;28;20037;-65
2023/05/29 01:12:22;;;;;;;17.35;5.10;;;;;;;13.31;81.75;102237.03;5035419;28;20533;-65
2023/05/29 01:14:55;;;;;;;14.68;4.75;;;;;;;13.07;82.73;102244.59;5009863;28;20099;-66
2023/05/29 01:17:46;;;;;;;15.02;4.63;;;;;;;13.21;82.78;102237.69;5033282;28;20064;-65
2023/05/29 01:20:34;;;;;;;15.60;4.53;;;;;;;13.18;82.32;102239.03;5034897;28;20058;-66
2023/05/29 01:23:27;;;;;;;15.25;4.47;;;;;;;13.17;82.64;102234.59;5033427;28;20041;-65
2023/05/29 01:26:33;;;;;;;15.30;4.60;;;;;;;13.12;81.41;102245.47;5032037;28;20053;-67
2023/05/29 01:29:05;;;;;;;13.02;4.32;;;;;;;13.00;82.93;102240.09;5034150;28;20081;-66
2023/05/29 01:31:35;;;;;;;12.40;4.82;;;;;;;12.95;82.58;102239.19;5017368;28;20100;-67
2023/05/29 01:34:03;;;;;;;14.18;4.25;;;;;;;12.88;82.53;102249.47;5033293;28;20046;-65
2023/05/29 01:36:32;;;;;;;16.60;4.13;;;;;;;12.75;83.57;102245.16;5025239;28;20053;-65
2023/05/29 01:39:02;;;;;;;19.15;4.60;;;;;;;12.84;83.40;102245.56;5013294;28;20049;-66
2023/05/29 01:41:32;;;;;;;14.57;4.55;;;;;;;12.88;83.11;102242.09;5030422;28;20120;-66
2023/05/29 01:44:01;;;;;;;17.63;4.97;;;;;;;12.84;82.62;102240.09;4998790;28;20045;-66
2023/05/29 01:46:29;;;;;;;15.10;4.32;;;;;;;12.87;82.24;102242.31;5007679;28;20060;-67
2023/05/29 01:48:57;;;;;;;18.10;4.63;;;;;;;12.89;82.65;102240.19;5031931;28;20068;-67
2023/05/29 01:51:25;;;;;;;10.60;4.00;;;;;;;12.90;82.28;102233.66;5033373;28;20049;-65
2023/05/29 01:53:53;;;;;;;18.15;5.13;;;;;;;12.86;81.87;102235.22;5032855;28;20051;-67
2023/05/29 01:56:21;;;;;;;14.43;3.90;;;;;;;12.83;81.91;102246.66;5014439;28;20483;-65
2023/05/29 01:58:50;;;;;;;17.83;4.50;;;;;;;12.84;81.80;102243.66;5003158;28;20041;-66
2023/05/29 02:01:21;;;;;;;14.48;4.82;;;;;;;12.91;82.01;102249.78;5017216;28;20144;-65
2023/05/29 02:03:48;;;;;;;17.90;4.30;;;;;;;12.90;81.36;102234.47;5031579;28;20413;-67
2023/05/29 02:06:16;;;;;;;15.35;4.40;;;;;;;13.00;81.05;102242.84;5050611;28;20130;-66
2023/05/29 02:08:44;;;;;;;13.57;3.60;;;;;;;12.95;80.76;102239.19;5032562;28;20049;-66
2023/05/29 02:11:12;;;;;;;15.32;4.43;;;;;;;12.87;82.34;102239.59;5049787;28;20061;-66
2023/05/29 02:13:41;;;;;;;14.75;4.75;;;;;;;12.81;82.16;102235.13;5027959;28;20052;-66
2023/05/29 02:16:08;;;;;;;15.38;4.38;;;;;;;12.73;82.00;102237.19;4994845;28;20076;-65
2023/05/29 02:18:37;;;;;;;13.68;4.43;;;;;;;12.65;83.06;102237.63;5032712;28;20037;-66
2023/05/29 02:21:07;;;;;;;19.20;4.38;;;;;;;12.68;83.57;102239.03;5052893;28;20140;-65
2023/05/29 02:23:35;;;;;;;15.25;4.28;;;;;;;12.71;83.19;102244.00;5052099;28;20452;-65
2023/05/29 02:26:02;;;;;;;13.13;4.25;;;;;;;12.66;82.64;102242.00;5017078;28;20133;-66
2023/05/29 02:28:30;;;;;;;15.43;4.13;;;;;;;12.45;84.38;102250.91;5042763;28;20057;-67
2023/05/29 02:30:58;;;;;;;17.77;4.40;;;;;;;12.34;85.05;102247.19;5037798;28;20103;-66
2023/05/29 02:33:27;;;;;;;14.52;3.90;;;;;;;12.40;85.01;102253.56;5030622;28;20532;-66
2023/05/29 02:35:55;;;;;;;17.25;4.20;;;;;;;12.47;84.08;102251.50;5014237;28;20046;-65
2023/05/29 02:38:24;;;;;;;17.58;4.53;;;;;;;12.26;85.13;102255.75;5023272;28;20069;-65
2023/05/29 02:40:51;;;;;;;16.50;4.68;;;;;;;12.28;85.57;102250.88;5034906;28;20116;-66
2023/05/29 02:43:23;;;;;;;12.23;3.97;;;;;;;12.30;84.80;102259.66;5035184;28;20037;-66
2023/05/29 02:45:50;;;;;;;11.85;3.90;;;;;;;12.17;85.58;102266.25;5035014;28;20069;-66
2023/05/29 02:48:18;;;;;;;14.80;4.10;;;;;;;12.20;86.01;102265.75;5034812;28;20064;-66
2023/05/29 02:50:46;;;;;;;15.18;4.25;;;;;;;12.28;85.57;102264.53;5036510;28;20061;-66
2023/05/29 02:53:14;;;;;;;14.45;4.60;;;;;;;12.33;85.27;102268.19;5030633;28;20044;-65
2023/05/29 02:55:42;;;;;;;19.27;4.32;;;;;;;12.32;85.54;102263.81;5015260;28;20050;-66
2023/05/29 02:58:11;;;;;;;13.43;3.97;;;;;;;12.24;85.35;102272.41;5017531;28;20124;-66
2023/05/29 03:00:39;;;;;;;13.63;4.05;;;;;;;12.16;86.94;102264.59;5037063;28;20107;-67
2023/05/29 03:03:06;;;;;;;15.98;4.35;;;;;;;12.31;86.36;102256.69;5019255;28;20461;-65
2023/05/29 03:05:34;;;;;;;13.57;4.53;;;;;;;12.26;86.12;102259.31;5019590;28;20050;-65
2023/05/29 03:08:02;;;;;;;22.42;4.80;;;;;;;12.21;85.91;102256.47;5002708;28;20058;-64
2023/05/29 03:10:30;;;;;;;15.95;4.57;;;;;;;12.16;87.01;102253.66;5032167;28;20073;-66
2023/05/29 03:12:58;;;;;;;15.45;4.10;;;;;;;12.03;87.59;102254.78;5019467;28;20112;-66
2023/05/29 03:15:26;;;;;;;18.10;4.43;;;;;;;12.11;87.12;102262.56;5020346;28;20049;-66
2023/05/29 03:17:54;;;;;;;13.75;3.97;;;;;;;12.07;87.58;102258.66;5020234;28;20125;-65
2023/05/29 03:20:27;;;;;;;15.57;4.30;;;;;;;12.15;87.85;102257.47;5029140;28;20044;-67
2023/05/29 03:22:58;;;;;;;16.58;4.57;;;;;;;11.96;87.96;102251.34;5021741;28;20053;-66
2023/05/29 03:25:26;;;;;;;18.83;4.55;;;;;;;11.90;88.23;102255.03;5022341;28;20052;-66
2023/05/29 03:27:53;;;;;;;16.67;4.18;;;;;;;11.97;88.68;102263.09;5021763;28;20072;-66
2023/05/29 03:30:22;;;;;;;17.67;4.60;;;;;;;11.97;89.21;102263.94;5024289;28;20155;-67
2023/05/29 03:32:51;;;;;;;17.80;4.07;;;;;;;11.94;88.70;102278.91;5016796;28;20750;-66
2023/05/29 03:35:25;;;;;;;14.63;4.43;;;;;;;11.85;88.98;102272.13;5039821;28;20497;-65
2023/05/29 03:37:53;;;;;;;15.52;4.30;;;;;;;11.73;89.56;102274.03;5023925;28;20053;-65
2023/05/29 03:40:21;;;;;;;16.25;4.20;;;;;;;11.72;90.53;102278.69;5039585;28;20060;-66
2023/05/29 03:42:48;;;;;;;18.35;4.53;;;;;;;11.77;90.15;102263.50;5041468;28;20053;-66
2023/05/29 03:45:17;;;;;;;15.07;4.45;;;;;;;11.79;90.45;102264.91;5043717;28;20119;-67
2023/05/29 03:47:44;;;;;;;18.13;4.57;;;;;;;11.81;89.41;102262.78;5007741;28;20041;-67
2023/05/29 03:50:15;;;;;;;14.18;4.45;;;;;;;11.75;90.21;102277.38;5022872;28;20124;-65
2023/05/29 03:52:44;;;;;;;15.30;3.83;;;;;;;11.73;89.74;102276.78;5012370;28;20048;-66
2023/05/29 03:55:14;;;;;;;23.45;4.80;;;;;;;11.80;89.13;102272.00;4999477;28;20049;-66
2023/05/29 03:57:43;;;;;;;14.88;4.20;;;;;;;11.78;89.16;102271.41;4983952;28;20056;-66
2023/05/29 04:00:12;;;;;;;16.15;3.83;;;;;;;11.70;89.73;102288.19;5045021;28;20046;-65
2023/05/29 04:02:40;;;;;;;18.05;4.60;;;;;;;11.62;89.23;102285.84;5024218;28;20041;-65
2023/05/29 04:05:09;;;;;;;15.00;4.30;;;;;;;11.60;90.36;102283.31;5035085;28;20049;-65
2023/05/29 04:07:42;;;;;;;18.80;4.40;;;;;;;11.65;90.45;102288.91;5035544;28;20076;-65
2023/05/29 04:10:10;;;;;;;13.77;3.97;;;;;;;11.78;88.44;102296.00;5035584;28;20450;-67
2023/05/29 04:12:37;;;;;;;15.77;4.32;;;;;;;11.72;89.47;102300.53;5039291;28;20041;-66
2023/05/29 04:15:06;;;;;;;18.13;4.50;;;;;;;11.80;88.50;102296.59;5055769;28;20044;-67
2023/05/29 04:17:34;;;;;;;13.15;3.83;;;;;;;11.75;88.27;102299.22;5039062;28;20045;-66
2023/05/29 04:20:08;;;;;;;16.88;4.03;;;;;;;11.77;88.06;102302.53;5038872;28;20056;-66
2023/05/29 04:22:37;;;;;;;13.48;3.83;;;;;;;11.75;88.65;102301.13;5012365;28;20073;-67
2023/05/29 04:25:05;;;;;;;14.43;3.78;;;;;;;11.70;88.91;102299.09;5033830;28;20047;-66
2023/05/29 04:27:37;;;;;;;12.95;3.50;;;;;;;11.61;89.15;102300.53;5049721;28;20045;-66
2023/05/29 04:30:08;;;;;;;13.77;4.03;;;;;;;11.57;89.04;102300.19;5024360;28;20539;-66
2023/05/29 04:32:42;;;;;;;17.27;4.18;;;;;;;11.68;88.58;102306.69;5034277;28;20053;-67
2023/05/29 04:35:10;;;;;;;14.38;3.70;;;;;;;11.78;88.01;102306.09;5002721;28;20103;-65
2023/05/29 04:37:45;;;;;;;16.35;4.43;;;;;;;11.87;87.42;102308.25;5051713;28;20053;-67
2023/05/29 04:40:17;;;;;;;14.07;3.92;;;;;;;11.64;88.74;102303.63;5035152;28;20095;-66
2023/05/29 04:42:46;;;;;;;14.05;4.05;;;;;;;11.69;88.25;102313.84;5028464;28;20053;-67
2023/05/29 04:45:16;;;;;;;14.63;4.25;;;;;;;11.64;88.18;102311.81;5014472;28;20042;-66
2023/05/29 04:47:44;;;;;;;16.33;4.32;;;;;;;11.66;88.57;102308.84;5002238;28;20073;-65
2023/05/29 04:50:16;;;;;;;17.55;4.80;;;;;;;11.61;89.27;102308.72;5004562;28;20553;-65
2023/05/29 04:52:44;;;;;;;14.93;3.97;;;;;;;11.56;89.23;102320.34;5020988;28;20046;-66
2023/05/29 04:55:12;;;;;;;17.15;4.53;;;;;;;11.48;88.96;102307.91;5052835;28;20128;-65
2023/05/29 04:57:40;;;;;;;14.43;4.07;;;;;;;11.55;88.79;102309.69;5031229;28;20058;-66
2023/05/29 05:00:18;;;;;;;15.77;4.22;;;;;;;11.49;89.03;102304.09;5014693;28;20054;-66
2023/05/29 05:02:47;;;;;;;20.00;5.03;;;;;;;11.54;89.41;102313.47;5015854;28;20042;-67
2023/05/29 05:05:15;;;;;;;19.08;5.07;;;;;;;11.70;87.92;102305.38;4990103;28;20045;-68
2023/05/29 05:07:43;;;;;;;16.33;4.57;;;;;;;11.74;87.40;102313.94;5034223;28;20124;-67
2023/05/29 05:10:12;;;;;;;22.40;4.95;;;;;;;11.60;87.98;102320.72;5033897;28;20104;-66
2023/05/29 05:12:40;;;;;;;14.30;4.38;;;;;;;11.62;88.47;102319.41;5037495;28;20401;-67
2023/05/29 05:15:10;;;;;;;18.45;4.50;;;;;;;11.69;88.02;102335.69;5002098;28;20048;-66
2023/05/29 05:17:38;;;;;;;19.45;4.68;;;;;;;11.51;88.16;102340.16;5051276;28;20045;-66
2023/05/29 05:20:08;;;;;;;14.55;4.15;;;;;;;11.48;89.50;102346.13;5038713;28;20076;-66
2023/05/29 05:22:37;;;;;;;16.25;3.97;;;;;;;11.51;88.63;102339.34;5026860;28;20049;-65
2023/05/29 05:25:05;;;;;;;22.55;5.25;;;;;;;11.50;88.98;102348.63;5051115;28;20064;-65
2023/05/29 05:27:34;;;;;;;15.48;4.63;;;;;;;11.56;89.02;102352.28;5034482;28;20131;-65
2023/05/29 05:30:04;;;;;;;20.15;4.70;;;;;;;11.40;88.92;102348.34;5014554;28;20124;-66
2023/05/29 05:32:32;;;;;;;22.27;5.03;;;;;;;11.45;89.57;102354.78;5031620;28;20052;-66
2023/05/29 05:35:05;;;;;;;16.55;4.82;;;;;;;11.36;90.33;102348.00;5034612;28;20063;-65
2023/05/29 05:37:33;;;;;;;15.35;4.38;;;;;;;11.56;88.69;102341.38;5022718;28;20057;-66
2023/05/29 05:40:01;;;;;;;17.92;4.57;;;;;;;11.69;88.39;102344.69;5017074;28;20049;-66
2023/05/29 05:42:31;;;;;;;17.50;4.45;;;;;;;11.72;87.08;102341.47;5020429;28;20061;-64
2023/05/29 05:45:04;;;;;;;18.08;4.68;;;;;;;11.76;87.19;102347.31;5031622;28;20103;-66
2023/05/29 05:47:35;;;;;;;15.75;4.20;;;;;;;11.60;87.22;102348.03;5024780;28;20053;-63
2023/05/29 05:50:03;;;;;;;22.27;5.07;;;;;;;11.56;86.91;102341.38;5001095;28;20132;-65
2023/05/29 05:52:32;;;;;;;19.52;5.20;;;;;;;11.58;86.92;102340.06;5016698;28;20460;-64
2023/05/29 05:55:01;;;;;;;18.85;4.97;;;;;;;11.58;86.56;102331.03;5033430;28;20141;-66
2023/05/29 05:57:32;;;;;;;20.50;5.43;;;;;;;11.52;86.39;102352.78;4336458;28;10021428;-66
2023/05/29 06:00:00;;;;;;;17.30;4.55;;;;;;;11.50;86.47;102333.06;5019929;28;20053;-67
2023/05/29 06:02:30;;;;;;;16.65;4.03;;;;;;;11.61;87.22;102331.38;5026374;28;20132;-66
2023/05/29 06:04:58;;;;;;;18.08;4.60;;;;;;;11.73;86.13;102345.88;5025945;28;20045;-66
2023/05/29 06:07:26;;;;;;;16.73;4.55;;;;;;;11.58;85.93;102342.78;5029362;28;20077;-64
2023/05/29 06:09:54;;;;;;;18.67;4.50;;;;;;;11.60;85.78;102342.56;5029257;28;20064;-65
2023/05/29 06:12:22;;;;;;;20.70;4.68;;;;;;;11.67;84.69;102340.53;5009554;28;20438;-66
2023/05/29 06:15:01;;;;;;;18.08;4.63;;;;;;;11.80;83.76;102353.94;5006638;28;20479;-66
2023/05/29 06:17:28;;;;;;;16.35;4.13;;;;;;;11.86;83.29;102347.53;5029010;28;20075;-66
2023/05/29 06:19:56;;;;;;;17.30;4.65;;;;;;;11.85;84.21;102351.31;5012804;28;20132;-67
2023/05/29 06:22:25;;;;;;;24.60;4.65;;;;;;;11.90;84.70;102356.91;5027619;28;20055;-67
2023/05/29 06:24:52;;;;;;;16.25;4.45;;;;;;;11.97;84.48;102361.44;5013832;28;20053;-66
2023/05/29 06:27:23;;;;;;;17.95;4.32;;;;;;;11.96;82.93;102363.34;5031722;28;20111;-66
2023/05/29 06:29:51;;;;;;;17.70;4.05;;;;;;;11.90;83.38;102370.56;5027014;28;20049;-67
2023/05/29 06:32:18;;;;;;;16.95;4.68;;;;;;;11.89;83.45;102371.66;4995030;28;20101;-65
2023/05/29 06:34:46;;;;;;;15.05;3.85;;;;;;;11.93;82.83;102374.75;5041738;28;20045;-66
2023/05/29 06:37:14;;;;;;;17.35;4.60;;;;;;;12.00;82.54;102374.63;5029195;28;20053;-66
2023/05/29 06:39:45;;;;;;;13.70;3.63;;;;;;;11.96;82.81;102368.81;5046093;28;20041;-66
2023/05/29 06:42:13;;;;;;;18.85;4.40;;;;;;;12.00;82.34;102367.28;5026930;28;20493;-66
2023/05/29 06:44:43;;;;;;;10.63;3.60;;;;;;;12.11;81.87;102373.78;5029456;28;20152;-67
2023/05/29 06:47:11;;;;;;;16.92;4.22;;;;;;;12.15;81.19;102374.97;5027287;28;20377;-66
2023/05/29 06:49:38;;;;;;;16.13;4.28;;;;;;;12.09;81.50;102370.44;5028857;28;20092;-66
2023/05/29 06:52:06;;;;;;;13.15;3.83;;;;;;;12.18;81.02;102371.75;5029031;28;20125;-67
2023/05/29 06:55:07;;;;;;;15.38;4.28;;;;;;;12.29;81.48;102372.78;5030077;28;20049;-67
2023/05/29 06:57:34;;;;;;;16.52;4.40;;;;;;;12.30;79.79;102379.91;5009558;28;20049;-65
2023/05/29 07:00:05;;;;;;;15.13;4.10;;;;;;;12.28;79.98;102376.59;5026557;28;20041;-66
2023/05/29 07:02:34;;;;;;;20.27;4.63;;;;;;;12.27;79.52;102370.31;4977123;28;20056;-66
2023/05/29 07:05:02;;;;;;;20.35;5.00;;;;;;;12.27;79.46;102366.75;5008797;28;20057;-66
2023/05/29 07:07:31;;;;;;;17.25;4.45;;;;;;;12.34;78.68;102375.63;5026698;28;20050;-66
2023/05/29 07:09:58;;;;;;;15.77;4.20;;;;;;;12.36;79.62;102368.84;5017647;28;20052;-64
2023/05/29 07:12:27;;;;;;;17.48;4.20;;;;;;;12.40;78.75;102368.38;5031718;28;20049;-66
2023/05/29 07:14:55;;;;;;;16.63;4.53;;;;;;;12.48;78.97;102362.50;5048824;28;20041;-65
2023/05/29 07:17:23;;;;;;;17.10;4.18;;;;;;;12.58;78.56;102368.19;5032018;28;20056;-64
2023/05/29 07:20:02;;;;;;;17.23;4.32;;;;;;;12.60;77.31;102367.94;5013451;28;20057;-64
2023/05/29 07:22:30;;;;;;;10.43;3.28;;;;;;;12.61;77.17;102361.41;5012561;28;20077;-64
2023/05/29 07:24:59;;;;;;;14.52;4.30;;;;;;;12.48;76.58;102377.03;5028852;28;20126;-65
2023/05/29 07:27:27;;;;;;;16.00;4.57;;;;;;;12.40;77.36;102377.38;5012132;28;20058;-66
2023/05/29 07:29:55;;;;;;;15.35;4.38;;;;;;;12.53;77.55;102370.81;5046447;28;20060;-65
2023/05/29 07:32:23;;;;;;;15.05;4.63;;;;;;;12.51;76.99;102387.47;5028673;28;20115;-66
2023/05/29 07:34:51;;;;;;;19.27;4.57;;;;;;;12.48;76.78;102395.31;5027832;28;20048;-65
2023/05/29 07:37:19;;;;;;;14.15;3.83;;;;;;;12.56;76.64;102376.63;4979775;28;20144;-65
2023/05/29 07:39:48;;;;;;;18.23;4.40;;;;;;;12.63;75.56;102384.69;4999640;28;20053;-65
2023/05/29 07:42:35;;;;;;;16.15;4.18;;;;;;;12.71;74.73;102381.56;5032845;28;20414;-65
2023/05/29 07:45:03;;;;;;;17.80;4.72;;;;;;;12.72;74.38;102385.97;5031867;28;20048;-65
2023/05/29 07:47:31;;;;;;;16.52;4.10;;;;;;;12.75;74.22;102382.75;5031759;28;20099;-64
2023/05/29 07:49:59;;;;;;;13.95;4.00;;;;;;;12.78;74.16;102384.97;5007906;28;20050;-65
2023/05/29 07:52:29;;;;;;;16.60;4.97;;;;;;;12.89;74.47;102382.44;4999735;28;20046;-65
2023/05/29 07:54:57;;;;;;;16.90;4.38;;;;;;;12.92;74.73;102381.97;5015062;28;20409;-66
2023/05/29 07:57:25;;;;;;;15.48;4.30;;;;;;;12.98;74.81;102394.66;5015570;28;20076;-65
2023/05/29 07:59:54;;;;;;;14.38;3.90;;;;;;;13.05;74.07;102386.28;5046096;28;20053;-66
2023/05/29 08:02:23;;;;;;;14.98;4.18;;;;;;;13.05;71.15;102398.06;5018567;28;20414;-65
2023/05/29 08:05:07;;;;;;;16.23;4.20;;;;;;;12.97;71.48;102395.72;5035774;28;20049;-66
2023/05/29 08:07:37;;;;;;;15.15;4.90;;;;;;;13.08;71.44;102396.72;5069092;28;20107;-64
2023/05/29 08:10:06;;;;;;;18.90;4.45;;;;;;;13.12;71.06;102393.25;5050666;28;20045;-65
2023/05/29 08:12:35;;;;;;;15.13;4.47;;;;;;;13.18;71.09;102392.28;5036545;28;20053;-66
2023/05/29 08:15:07;;;;;;;15.85;4.30;;;;;;;13.32;69.98;102395.53;5019151;28;20061;-64
2023/05/29 08:17:37;;;;;;;15.88;5.00;;;;;;;13.37;69.84;102408.50;5051161;28;20417;-64
2023/05/29 08:20:09;;;;;;;13.25;3.63;;;;;;;13.24;69.79;102412.34;5038341;28;20136;-65
2023/05/29 08:22:37;;;;;;;17.23;4.40;;;;;;;13.28;70.88;102410.81;5018410;28;20060;-65
2023/05/29 08:25:05;;;;;;;18.42;5.15;;;;;;;13.29;70.68;102406.19;5002629;28;20061;-65
2023/05/29 08:27:33;;;;;;;19.25;4.40;;;;;;;13.31;69.70;102412.25;5035152;28;20061;-63
2023/05/29 08:30:03;;;;;;;16.20;4.88;;;;;;;13.30;69.63;102405.09;4696693;28;10000293;-65
2023/05/29 08:32:30;;;;;;;13.25;4.25;;;;;;;13.40;69.69;102413.50;5064564;28;20452;-65
2023/05/29 08:34:59;;;;;;;18.88;4.18;;;;;;;13.45;69.71;102408.09;5029840;28;20052;-66
2023/05/29 08:37:27;;;;;;;16.10;4.03;;;;;;;13.48;69.39;102409.50;4996966;28;20042;-64
2023/05/29 08:39:55;;;;;;;14.05;4.95;;;;;;;13.48;69.18;102404.84;5016862;28;20046;-64
2023/05/29 08:42:47;;;;;;;15.82;4.25;;;;;;;13.55;69.80;102405.53;5023687;28;20108;-62
2023/05/29 08:45:15;;;;;;;15.70;4.05;;;;;;;13.61;68.86;102407.28;5012326;28;20050;-64
2023/05/29 08:47:43;;;;;;;13.10;4.15;;;;;;;13.68;68.96;102409.00;5044737;28;20069;-65
2023/05/29 08:50:14;;;;;;;12.95;4.20;;;;;;;13.75;68.57;102412.41;5019450;28;20053;-66
2023/05/29 08:52:41;;;;;;;15.40;3.95;;;;;;;13.84;68.80;102421.88;5029412;28;20055;-65
2023/05/29 08:55:09;;;;;;;18.00;4.82;;;;;;;13.90;67.61;102426.31;5049960;28;20055;-63
2023/05/29 08:57:42;;;;;;;18.05;4.68;;;;;;;13.91;67.90;102418.97;5047673;28;20360;-65
2023/05/29 09:00:13;;;;;;;18.85;4.57;;;;;;;13.77;68.93;102413.81;5045867;28;20044;-65
2023/05/29 09:02:41;;;;;;;15.55;4.30;;;;;;;13.79;69.15;102424.53;5040521;28;20053;-66
2023/05/29 09:05:09;;;;;;;15.77;4.35;;;;;;;13.79;69.23;102413.56;5016665;28;20450;-67
2023/05/29 09:07:38;;;;;;;15.65;4.07;;;;;;;13.90;68.53;102415.34;5036656;28;20049;-66
2023/05/29 09:10:09;;;;;;;14.55;3.90;;;;;;;13.95;68.61;102407.25;5014319;28;20115;-65
2023/05/29 09:12:37;;;;;;;16.13;4.63;;;;;;;14.01;67.54;102410.88;5015580;28;20046;-65
2023/05/29 09:15:18;;;;;;;14.55;3.72;;;;;;;14.04;67.95;102422.16;5024217;28;20115;-65
2023/05/29 09:17:52;;;;;;;15.57;4.30;;;;;;;14.06;67.30;102414.50;5016192;28;20046;-64
2023/05/29 09:20:24;;;;;;;17.65;4.13;;;;;;;14.02;67.13;102423.47;5032584;28;20045;-64
2023/05/29 09:23:03;;;;;;;15.05;4.32;;;;;;;14.01;67.42;102414.44;5034798;28;20050;-66
2023/05/29 09:25:33;;;;;;;13.93;4.32;;;;;;;14.05;68.18;102409.31;5018404;28;20046;-63
2023/05/29 09:28:07;;;;;;;16.55;4.43;;;;;;;14.15;67.71;102405.88;5019079;28;20050;-64
2023/05/29 09:30:36;;;;;;;16.20;4.45;;;;;;;14.22;67.52;102406.50;5035439;28;20080;-65
2023/05/29 09:33:07;;;;;;;18.13;5.13;;;;;;;14.24;67.82;102407.09;5037008;28;20127;-65
2023/05/29 09:35:36;;;;;;;17.60;4.55;;;;;;;14.29;67.33;102412.66;5034813;28;20053;-64
2023/05/29 09:38:04;;;;;;;19.35;4.53;;;;;;;14.32;66.96;102406.63;5023175;28;20410;-62
2023/05/29 09:40:34;;;;;;;15.70;4.55;;;;;;;14.31;66.71;102407.75;5013364;28;20057;-66
2023/05/29 09:43:10;;;;;;;18.25;4.97;;;;;;;14.35;66.92;102410.78;5030722;28;20050;-65
2023/05/29 09:45:42;;;;;;;19.40;4.78;;;;;;;14.35;67.60;102411.59;5013490;28;20045;-65
2023/05/29 09:48:17;;;;;;;18.75;4.60;;;;;;;14.42;67.30;102412.25;5037905;28;20104;-64
2023/05/29 09:50:47;;;;;;;14.85;4.43;;;;;;;14.49;66.70;102412.88;5013173;28;20054;-61
2023/05/29 09:53:18;;;;;;;19.05;4.97;;;;;;;14.56;67.30;102401.75;5029628;28;20076;-64
2023/05/29 09:55:47;;;;;;;15.90;4.65;;;;;;;14.59;67.54;102411.38;5033607;28;20054;-65
2023/05/29 09:58:18;;;;;;;17.95;4.97;;;;;;;14.65;67.32;102404.91;5030520;28;20050;-66
2023/05/29 10:00:48;;;;;;;17.52;4.90;;;;;;;14.73;66.04;102409.91;5032141;28;20045;-64
2023/05/29 10:03:16;;;;;;;18.42;4.53;;;;;;;14.76;65.55;102434.09;5033847;28;20049;-63
2023/05/29 10:05:50;;;;;;;15.43;4.80;;;;;;;14.64;65.14;102408.69;5016765;28;20045;-67
2023/05/29 10:08:19;;;;;;;18.30;4.55;;;;;;;14.65;65.20;102399.41;5032468;28;20049;-65
2023/05/29 10:10:53;;;;;;;16.10;4.07;;;;;;;14.73;65.06;102409.91;5017262;28;20045;-64
2023/05/29 10:13:24;;;;;;;16.92;3.90;;;;;;;14.78;63.96;102399.00;5027662;28;20096;-65
2023/05/29 10:15:54;;;;;;;16.83;4.18;;;;;;;14.86;63.77;102401.28;5013819;28;20073;-66
2023/05/29 10:18:32;;;;;;;15.13;4.40;;;;;;;14.89;63.71;102399.94;5032502;28;20470;-65
2023/05/29 10:21:02;;;;;;;17.75;4.78;;;;;;;14.95;63.56;102398.06;5015428;28;20383;-64
2023/05/29 10:23:30;;;;;;;16.08;4.50;;;;;;;14.96;64.07;102399.72;5034068;28;20159;-65
2023/05/29 10:26:23;;;;;;;14.88;4.65;;;;;;;14.94;63.79;102390.94;5032929;28;20045;-68
2023/05/29 10:29:32;;;;;;;19.95;4.25;;;;;;;15.07;63.21;102394.06;5031143;28;20052;-65
2023/05/29 10:32:06;;;;;;;17.27;4.57;;;;;;;15.11;63.88;102389.72;5023360;28;20038;-65
2023/05/29 10:35:18;;;;;;;15.02;4.15;;;;;;;15.13;63.46;102394.97;5041492;28;20041;-64
2023/05/29 10:38:02;;;;;;;18.30;5.13;;;;;;;15.12;62.65;102388.63;5006569;28;20524;-64
2023/05/29 10:40:30;;;;;;;12.57;3.97;;;;;;;15.17;62.04;102390.59;5031901;28;20057;-64
2023/05/29 10:42:58;;;;;;;12.00;3.65;;;;;;;15.19;62.01;102382.09;5015302;28;20049;-65
2023/05/29 10:45:29;;;;;;;17.15;4.30;;;;;;;15.25;61.58;102378.31;5023392;28;20049;-65
2023/05/29 10:48:17;;;;;;;13.45;4.05;;;;;;;15.32;62.41;102382.50;5031942;28;20120;-65
2023/05/29 10:50:47;;;;;;;14.45;4.00;;;;;;;15.41;61.97;102379.25;5032540;28;20075;-64
2023/05/29 10:53:17;;;;;;;14.68;3.88;;;;;;;15.45;62.39;102380.41;5015428;28;20096;-65
2023/05/29 10:55:45;;;;;;;13.68;4.50;;;;;;;15.52;61.38;102381.00;5012900;28;20124;-64
2023/05/29 10:58:27;;;;;;;16.88;4.35;;;;;;;15.63;61.11;102387.41;5010223;28;20057;-66
2023/05/29 11:00:56;;;;;;;13.23;4.07;;;;;;;15.68;61.62;102393.78;5016334;28;20054;-67
2023/05/29 11:03:34;;;;;;;12.68;3.92;;;;;;;15.61;60.35;102378.59;5017604;28;20076;-65
2023/05/29 11:06:19;;;;;;;12.57;3.78;;;;;;;15.63;61.63;102379.97;5013688;28;20053;-64
2023/05/29 11:08:56;;;;;;;18.42;4.60;;;;;;;15.64;61.77;102384.41;5028209;28;20045;-63
2023/05/29 11:11:36;;;;;;;15.25;4.78;;;;;;;15.72;61.50;102383.09;5018577;28;20055;-64
2023/05/29 11:14:06;;;;;;;15.65;4.03;;;;;;;15.71;60.87;102385.03;5032901;28;20478;-64
2023/05/29 11:16:33;;;;;;;15.68;4.50;;;;;;;15.69;59.88;102384.44;5032894;28;20057;-64
2023/05/29 11:19:06;;;;;;;11.63;3.72;;;;;;;15.63;59.38;102377.22;5031953;28;20053;-64
2023/05/29 11:21:45;;;;;;;16.02;4.03;;;;;;;15.66;58.64;102379.47;5044265;28;20126;-66
2023/05/29 11:24:29;;;;;;;13.88;3.72;;;;;;;15.73;59.69;102376.53;5031099;28;20132;-64
2023/05/29 11:27:06;;;;;;;18.73;4.82;;;;;;;15.84;59.67;102369.16;5035762;28;20432;-66
2023/05/29 11:29:34;;;;;;;16.05;4.32;;;;;;;15.91;59.91;102369.75;5007044;28;20049;-65
2023/05/29 11:32:05;;;;;;;17.08;4.57;;;;;;;15.94;59.21;102382.97;5000499;28;20058;-65